createdAt,value
2022-10-01T00:01:13.162Z,101113.38
2022-10-01T00:04:03.838Z,101117.77
2022-10-01T00:06:54.007Z,101118.34
2022-10-01T00:09:43.862Z,101118.13
2022-10-01T00:12:34.246Z,101120.55
2022-10-01T00:15:24.027Z,101124.83
2022-10-01T00:18:14.422Z,101127.06
2022-10-01T00:21:09.231Z,101130.86
2022-10-01T00:24:01.036Z,101127.92
2022-10-01T00:26:51.001Z,101122.98
2022-10-01T00:29:44.230Z,101126.40
2022-10-01T00:32:34.605Z,101131.35
2022-10-01T00:35:26.263Z,101128.42
2022-10-01T00:38:16.398Z,101132.19
2022-10-01T00:41:07.608Z,101130.32
2022-10-01T00:44:01.448Z,101129.80
2022-10-01T00:46:53.217Z,101132.66
2022-10-01T00:49:44.713Z,101138.30
2022-10-01T00:52:39.947Z,101138.31
2022-10-01T00:55:34.429Z,101145.81
2022-10-01T00:58:26.214Z,101150.52
2022-10-01T01:01:16.157Z,101153.50
2022-10-01T01:04:16.375Z,101158.41
2022-10-01T01:07:07.985Z,101157.00
2022-10-01T01:09:58.745Z,101150.58
2022-10-01T01:13:02.176Z,101152.29
2022-10-01T01:16:02.623Z,101149.91
2022-10-01T01:19:00.596Z,101142.87
2022-10-01T01:21:56.658Z,101146.15
2022-10-01T01:24:52.463Z,101151.36
2022-10-01T01:27:47.493Z,101148.58
2022-10-01T01:30:41.317Z,101144.57
2022-10-01T01:33:35.781Z,101146.89
2022-10-01T01:36:30.673Z,101147.66
2022-10-01T01:39:23.452Z,101149.12
2022-10-01T01:42:20.097Z,101151.04
2022-10-01T01:45:16.195Z,101155.36
2022-10-01T01:48:09.189Z,101158.83
2022-10-01T01:51:05.123Z,101156.14
2022-10-01T01:53:56.519Z,101153.60
2022-10-01T01:56:48.244Z,101149.00
2022-10-01T01:59:38.491Z,101149.59
2022-10-01T02:02:33.305Z,101143.49
2022-10-01T02:05:27.773Z,101137.18
2022-10-01T02:08:33.183Z,101144.64
2022-10-01T02:11:29.329Z,101146.73
2022-10-01T02:14:29.129Z,101136.96
2022-10-01T02:17:29.476Z,101128.98
2022-10-01T02:20:29.436Z,101126.04
2022-10-01T02:23:23.132Z,101131.80
2022-10-01T02:26:17.241Z,101139.34
2022-10-01T02:29:11.384Z,101141.90
2022-10-01T02:32:03.456Z,101149.98
2022-10-01T02:34:54.434Z,101153.49
2022-10-01T02:37:49.527Z,101154.04
2022-10-01T02:40:43.791Z,101155.67
2022-10-01T02:43:42.881Z,101156.45
2022-10-01T02:46:42.586Z,101161.05
2022-10-01T02:49:33.498Z,101164.20
2022-10-01T02:52:29.904Z,101163.16
2022-10-01T02:55:24.389Z,101168.68
2022-10-01T02:58:14.901Z,101169.55
2022-10-01T03:01:06.299Z,101173.80
2022-10-01T03:03:56.035Z,101178.23
2022-10-01T03:06:46.510Z,101182.62
2022-10-01T03:09:37.618Z,101184.84
2022-10-01T03:12:27.861Z,101187.64
2022-10-01T03:15:20.355Z,101187.95
2022-10-01T03:18:10.636Z,101192.76
2022-10-01T03:21:00.691Z,101194.78
2022-10-01T03:23:50.366Z,101198.82
2022-10-01T03:26:40.373Z,101209.66
2022-10-01T03:29:30.631Z,101212.76
2022-10-01T03:32:21.360Z,101218.01
2022-10-01T03:35:12.721Z,101220.83
2022-10-01T03:38:03.048Z,101217.35
2022-10-01T03:40:53.277Z,101224.74
2022-10-01T03:43:43.070Z,101225.60
2022-10-01T03:46:33.508Z,101226.48
2022-10-01T03:49:23.774Z,101230.23
2022-10-01T03:52:14.056Z,101235.87
2022-10-01T03:55:04.427Z,101245.72
2022-10-01T03:57:54.264Z,101245.55
2022-10-01T04:00:44.819Z,101243.01
2022-10-01T04:03:34.441Z,101245.77
2022-10-01T04:06:24.530Z,101243.98
2022-10-01T04:09:15.132Z,101238.36
2022-10-01T04:12:05.961Z,101237.26
2022-10-01T04:14:56.424Z,101238.30
2022-10-01T04:17:46.258Z,101240.61
2022-10-01T04:20:38.473Z,101239.48
2022-10-01T04:23:29.174Z,101243.43
2022-10-01T04:26:19.671Z,101246.40
2022-10-01T04:29:09.745Z,101249.59
2022-10-01T04:31:59.736Z,101255.35
2022-10-01T04:34:55.898Z,101259.39
2022-10-01T04:37:46.582Z,101254.79
2022-10-01T04:40:38.259Z,101248.80
2022-10-01T04:43:29.099Z,101245.60
2022-10-01T04:46:19.326Z,101248.50
2022-10-01T04:49:10.480Z,101252.64
2022-10-01T04:52:01.044Z,101254.56
2022-10-01T04:54:52.473Z,101253.80
2022-10-01T04:57:42.713Z,101254.81
2022-10-01T05:00:32.928Z,101257.34
2022-10-01T05:03:23.364Z,101261.25
2022-10-01T05:06:13.727Z,101252.10
2022-10-01T05:09:03.742Z,101258.63
2022-10-01T05:11:53.710Z,101260.77
2022-10-01T05:14:43.610Z,101263.43
2022-10-01T05:17:34.435Z,101268.71
2022-10-01T05:20:26.624Z,101272.08
2022-10-01T05:23:16.195Z,101272.29
2022-10-01T05:26:07.484Z,101280.20
2022-10-01T05:28:58.620Z,101281.52
2022-10-01T05:31:49.574Z,101286.17
2022-10-01T05:34:40.136Z,101290.27
2022-10-01T05:37:30.858Z,101290.08
2022-10-01T05:40:20.948Z,101292.56
2022-10-01T05:43:12.153Z,101294.98
2022-10-01T05:46:05.415Z,101303.02
2022-10-01T05:48:56.234Z,101310.10
2022-10-01T05:51:46.738Z,101308.32
2022-10-01T05:54:37.143Z,101304.42
2022-10-01T05:57:27.557Z,101298.42
2022-10-01T06:00:19.841Z,101297.45
2022-10-01T06:03:12.688Z,101295.33
2022-10-01T06:06:05.555Z,101293.27
2022-10-01T06:08:55.528Z,101292.71
2022-10-01T06:11:47.160Z,101298.59
2022-10-01T06:14:37.397Z,101303.83
2022-10-01T06:17:26.925Z,101309.75
2022-10-01T06:20:19.167Z,101316.87
2022-10-01T06:23:12.321Z,101320.85
2022-10-01T06:26:05.659Z,101321.80
2022-10-01T06:28:56.705Z,101324.84
2022-10-01T06:31:46.876Z,101330.23
2022-10-01T06:34:37.086Z,101330.10
2022-10-01T06:37:27.697Z,101331.91
2022-10-01T06:40:18.982Z,101329.27
2022-10-01T06:43:09.776Z,101327.64
2022-10-01T06:46:02.606Z,101327.29
2022-10-01T06:48:53.686Z,101326.73
2022-10-01T06:52:01.757Z,101325.02
2022-10-01T06:54:52.468Z,101324.10
2022-10-01T06:57:42.247Z,101324.91
2022-10-01T07:00:33.910Z,101324.45
2022-10-01T07:03:24.979Z,101325.95
2022-10-01T07:06:15.839Z,101325.67
2022-10-01T07:09:05.788Z,101328.45
2022-10-01T07:11:57.262Z,101331.44
2022-10-01T07:14:47.963Z,101332.45
2022-10-01T07:17:46.126Z,101335.23
2022-10-01T07:20:39.676Z,101337.27
2022-10-01T07:23:30.000Z,101344.62
2022-10-01T07:26:20.301Z,101355.41
2022-10-01T07:29:11.032Z,101358.44
2022-10-01T07:32:02.128Z,101364.56
2022-10-01T07:34:53.167Z,101368.27
2022-10-01T07:37:43.137Z,101369.16
2022-10-01T07:40:33.098Z,101366.99
2022-10-01T07:43:23.155Z,101370.98
2022-10-01T07:46:13.169Z,101374.05
2022-10-01T07:49:02.949Z,101377.70
2022-10-01T07:51:53.308Z,101382.36
2022-10-01T07:54:43.337Z,101385.73
2022-10-01T07:57:34.267Z,101382.91
2022-10-01T08:00:25.843Z,101381.64
2022-10-01T08:03:16.501Z,101381.51
2022-10-01T08:06:07.064Z,101379.98
2022-10-01T08:08:57.131Z,101377.41
2022-10-01T08:11:48.353Z,101370.68
2022-10-01T08:14:38.576Z,101374.38
2022-10-01T08:17:29.602Z,101382.05
2022-10-01T08:20:21.559Z,101384.72
2022-10-01T08:23:14.422Z,101386.30
2022-10-01T08:26:07.334Z,101386.67
2022-10-01T08:28:57.306Z,101391.41
2022-10-01T08:31:47.227Z,101395.33
2022-10-01T08:34:36.754Z,101394.70
2022-10-01T08:37:29.110Z,101400.36
2022-10-01T08:40:20.458Z,101406.64
2022-10-01T08:43:23.050Z,101406.38
2022-10-01T08:46:19.362Z,101406.89
2022-10-01T08:49:20.929Z,101408.11
2022-10-01T08:52:23.547Z,101411.30
2022-10-01T08:55:19.482Z,101406.70
2022-10-01T08:58:12.601Z,101401.95
2022-10-01T09:01:02.615Z,101402.16
2022-10-01T09:03:53.883Z,101408.10
2022-10-01T09:06:45.762Z,101409.11
2022-10-01T09:09:46.696Z,101407.91
2022-10-01T09:12:49.553Z,101401.42
2022-10-01T09:15:49.595Z,101396.10
2022-10-01T09:18:51.674Z,101392.34
2022-10-01T09:21:55.160Z,101399.78
2022-10-01T09:24:47.059Z,101408.41
2022-10-01T09:27:39.037Z,101413.44
2022-10-01T09:30:30.463Z,101415.52
2022-10-01T09:33:21.611Z,101417.91
2022-10-01T09:36:19.444Z,101414.29
2022-10-01T09:39:18.438Z,101405.73
2022-10-01T09:42:08.833Z,101402.75
2022-10-01T09:44:59.012Z,101404.21
2022-10-01T09:47:52.704Z,101400.66
2022-10-01T09:50:45.393Z,101392.94
2022-10-01T09:53:41.333Z,101396.59
2022-10-01T09:56:38.611Z,101393.08
2022-10-01T09:59:35.977Z,101393.83
2022-10-01T10:02:32.485Z,101393.52
2022-10-01T10:05:24.306Z,101400.27
2022-10-01T10:08:17.272Z,101398.36
2022-10-01T10:11:10.835Z,101388.66
2022-10-01T10:14:03.725Z,101383.62
2022-10-01T10:16:55.019Z,101384.11
2022-10-01T10:19:51.894Z,101386.89
2022-10-01T10:22:41.992Z,101385.85
2022-10-01T10:25:32.295Z,101383.65
2022-10-01T10:28:24.907Z,101381.15
2022-10-01T10:31:18.840Z,101383.98
2022-10-01T10:34:15.834Z,101386.13
2022-10-01T10:37:13.950Z,101384.71
2022-10-01T10:40:08.218Z,101390.09
2022-10-01T10:43:00.417Z,101384.42
2022-10-01T10:45:56.574Z,101386.07
2022-10-01T10:48:49.600Z,101384.69
2022-10-01T10:51:51.735Z,101388.36
2022-10-01T10:54:49.511Z,101393.96
2022-10-01T10:57:39.528Z,101389.84
2022-10-01T11:00:30.003Z,101398.33
2022-10-01T11:03:23.002Z,101397.20
2022-10-01T11:06:15.452Z,101395.26
2022-10-01T11:09:11.958Z,101387.55
2022-10-01T11:12:10.874Z,101394.52
2022-10-01T11:15:17.225Z,101394.34
2022-10-01T11:18:32.905Z,101394.93
2022-10-01T11:21:42.045Z,101395.05
2022-10-01T11:24:54.288Z,101395.52
2022-10-01T11:27:53.986Z,101399.11
2022-10-01T11:30:57.133Z,101403.08
2022-10-01T11:34:11.919Z,101397.45
2022-10-01T11:37:10.936Z,101401.58
2022-10-01T11:40:06.131Z,101408.80
2022-10-01T11:43:02.987Z,101408.66
2022-10-01T11:45:57.729Z,101393.06
2022-10-01T11:48:53.448Z,101393.51
2022-10-01T11:51:49.328Z,101400.10
2022-10-01T11:54:49.316Z,101396.95
2022-10-01T11:57:59.815Z,101395.44
2022-10-01T12:00:59.290Z,101393.04
2022-10-01T12:03:57.574Z,101389.05
2022-10-01T12:06:56.024Z,101391.27
2022-10-01T12:09:56.101Z,101385.14
2022-10-01T12:12:55.685Z,101380.26
2022-10-01T12:15:51.039Z,101379.91
2022-10-01T12:18:52.809Z,101379.11
2022-10-01T12:21:50.445Z,101375.66
2022-10-01T12:24:43.757Z,101376.48
2022-10-01T12:27:56.287Z,101375.09
2022-10-01T12:30:53.965Z,101374.73
2022-10-01T12:34:00.192Z,101376.26
2022-10-01T12:36:58.233Z,101376.05
2022-10-01T12:40:10.221Z,101373.70
2022-10-01T12:43:21.418Z,101370.36
2022-10-01T12:46:23.075Z,101370.95
2022-10-01T12:49:22.750Z,101367.38
2022-10-01T12:52:22.151Z,101358.95
2022-10-01T12:55:34.766Z,101358.31
2022-10-01T12:58:44.275Z,101355.86
2022-10-01T13:01:50.396Z,101357.27
2022-10-01T13:04:59.773Z,101356.05
2022-10-01T13:08:01.041Z,101346.64
2022-10-01T13:11:02.460Z,101357.50
2022-10-01T13:13:54.997Z,101360.13
2022-10-01T13:16:54.626Z,101352.34
2022-10-01T13:19:52.646Z,101347.86
2022-10-01T13:22:50.257Z,101345.70
2022-10-01T13:25:49.409Z,101341.39
2022-10-01T13:28:59.289Z,101343.27
2022-10-01T13:31:58.936Z,101348.39
2022-10-01T13:34:48.952Z,101356.84
2022-10-01T13:37:41.342Z,101359.73
2022-10-01T13:40:33.477Z,101361.33
2022-10-01T13:43:25.591Z,101356.38
2022-10-01T13:46:16.146Z,101358.23
2022-10-01T13:49:24.278Z,101354.08
2022-10-01T13:52:24.913Z,101355.77
2022-10-01T13:55:29.346Z,101360.78
2022-10-01T13:58:33.445Z,101358.40
2022-10-01T14:01:42.129Z,101356.16
2022-10-01T14:04:39.441Z,101354.16
2022-10-01T14:07:37.032Z,101359.95
2022-10-01T14:11:02.295Z,101359.57
2022-10-01T14:14:11.843Z,101361.36
2022-10-01T14:17:02.714Z,101351.66
2022-10-01T14:19:54.601Z,101351.79
2022-10-01T14:23:03.501Z,101348.23
2022-10-01T14:26:00.832Z,101348.84
2022-10-01T14:29:03.953Z,101350.52
2022-10-01T14:32:05.310Z,101347.02
2022-10-01T14:35:06.160Z,101341.84
2022-10-01T14:38:02.010Z,101346.95
2022-10-01T14:40:53.592Z,101350.02
2022-10-01T14:43:44.031Z,101345.70
2022-10-01T14:46:38.686Z,101345.89
2022-10-01T14:49:30.742Z,101344.64
2022-10-01T14:52:28.291Z,101341.73
2022-10-01T14:55:21.898Z,101346.15
2022-10-01T14:58:19.861Z,101350.10
2022-10-01T15:01:18.365Z,101339.71
2022-10-01T15:04:20.894Z,101331.99
2022-10-01T15:07:17.566Z,101323.90
2022-10-01T15:10:17.436Z,101331.42
2022-10-01T15:13:10.457Z,101325.77
2022-10-01T15:16:01.331Z,101317.90
2022-10-01T15:18:55.101Z,101318.08
2022-10-01T15:21:49.798Z,101314.40
2022-10-01T15:24:44.276Z,101310.87
2022-10-01T15:27:35.025Z,101301.80
2022-10-01T15:30:30.433Z,101305.91
2022-10-01T15:33:29.013Z,101308.21
2022-10-01T15:36:21.297Z,101307.03
2022-10-01T15:39:30.631Z,101305.31
2022-10-01T15:42:31.899Z,101309.23
2022-10-01T15:45:27.452Z,101310.86
2022-10-01T15:48:31.086Z,101314.92
2022-10-01T15:51:27.204Z,101324.54
2022-10-01T15:54:17.522Z,101322.92
2022-10-01T15:57:09.072Z,101322.98
2022-10-01T15:59:59.721Z,101316.55
2022-10-01T16:02:50.007Z,101313.78
2022-10-01T16:05:46.982Z,101307.45
2022-10-01T16:08:56.816Z,101293.13
2022-10-01T16:11:58.133Z,101298.89
2022-10-01T16:15:00.072Z,101305.82
2022-10-01T16:17:58.649Z,101305.69
2022-10-01T16:20:59.109Z,101307.62
2022-10-01T16:23:50.917Z,101311.86
2022-10-01T16:26:44.874Z,101310.27
2022-10-01T16:29:36.473Z,101310.83
2022-10-01T16:32:26.898Z,101318.45
2022-10-01T16:35:24.420Z,101317.29
2022-10-01T16:38:14.854Z,101318.77
2022-10-01T16:41:05.517Z,101336.27
2022-10-01T16:43:59.164Z,101326.73
2022-10-01T16:46:48.970Z,101318.23
2022-10-01T16:49:39.080Z,101322.40
2022-10-01T16:52:29.564Z,101329.17
2022-10-01T16:55:24.202Z,101330.41
2022-10-01T16:58:14.152Z,101343.34
2022-10-01T17:01:07.815Z,101339.42
2022-10-01T17:03:57.512Z,101345.14
2022-10-01T17:06:47.153Z,101348.92
2022-10-01T17:09:36.947Z,101353.54
2022-10-01T17:12:27.223Z,101347.20
2022-10-01T17:15:19.426Z,101356.17
2022-10-01T17:18:10.217Z,101357.47
2022-10-01T17:21:00.462Z,101352.42
2022-10-01T17:23:53.489Z,101363.73
2022-10-01T17:26:46.567Z,101356.25
2022-10-01T17:29:37.229Z,101367.60
2022-10-01T17:32:27.574Z,101368.77
2022-10-01T17:35:18.499Z,101367.08
2022-10-01T17:38:08.112Z,101378.55
2022-10-01T17:41:00.527Z,101374.42
2022-10-01T17:43:50.381Z,101375.16
2022-10-01T17:46:40.594Z,101380.27
2022-10-01T17:49:30.793Z,101383.08
2022-10-01T17:52:21.461Z,101382.06
2022-10-01T17:55:13.300Z,101387.61
2022-10-01T17:58:03.269Z,101388.73
2022-10-01T18:00:54.250Z,101389.42
2022-10-01T18:03:44.488Z,101395.45
2022-10-01T18:06:34.773Z,101404.93
2022-10-01T18:09:25.314Z,101403.48
2022-10-01T18:12:16.023Z,101399.52
2022-10-01T18:15:07.013Z,101405.58
2022-10-01T18:19:03.564Z,101412.46
2022-10-01T18:21:09.257Z,101424.79
2022-10-01T18:24:04.276Z,101420.53
2022-10-01T18:26:54.894Z,101421.84
2022-10-01T18:29:45.485Z,101425.35
2022-10-01T18:32:41.927Z,101430.89
2022-10-01T18:35:34.996Z,101428.64
2022-10-01T18:38:32.184Z,101429.95
2022-10-01T18:41:28.097Z,101432.20
2022-10-01T18:44:20.670Z,101441.38
2022-10-01T18:47:22.506Z,101442.08
2022-10-01T18:50:26.021Z,101448.23
2022-10-01T18:53:33.269Z,101443.21
2022-10-01T18:56:31.000Z,101441.63
2022-10-01T18:59:38.609Z,101449.59
2022-10-01T19:02:42.015Z,101446.64
2022-10-01T19:06:05.060Z,101452.58
2022-10-01T19:09:15.157Z,101461.13
2022-10-01T19:12:27.223Z,101463.85
2022-10-01T19:15:27.247Z,101465.48
2022-10-01T19:18:35.736Z,101464.62
2022-10-01T19:21:33.878Z,101467.62
2022-10-01T19:24:52.410Z,101476.57
2022-10-01T19:27:56.038Z,101477.40
2022-10-01T19:30:57.814Z,101482.63
2022-10-01T19:33:53.131Z,101485.05
2022-10-01T19:36:51.514Z,101489.43
2022-10-01T19:39:45.320Z,101494.90
2022-10-01T19:42:39.823Z,101496.13
2022-10-01T19:45:37.710Z,101497.45
2022-10-01T19:48:38.114Z,101498.21
2022-10-01T19:51:33.690Z,101497.13
2022-10-01T19:54:29.294Z,101499.48
2022-10-01T19:57:25.227Z,101504.64
2022-10-01T20:00:20.139Z,101516.95
2022-10-01T20:03:18.432Z,101520.20
2022-10-01T20:06:19.100Z,101518.20
2022-10-01T20:09:18.637Z,101522.23
2022-10-01T20:12:18.055Z,101524.87
2022-10-01T20:15:22.828Z,101522.27
2022-10-01T20:18:27.980Z,101527.83
2022-10-01T20:21:31.021Z,101533.66
2022-10-01T20:24:47.979Z,101529.34
2022-10-01T20:27:51.752Z,101535.83
2022-10-01T20:30:48.943Z,101541.84
2022-10-01T20:33:49.171Z,101540.81
2022-10-01T20:36:45.852Z,101543.45
2022-10-01T20:39:39.902Z,101550.84
2022-10-01T20:42:38.158Z,101546.25
2022-10-01T20:45:30.490Z,101551.13
2022-10-01T20:48:25.586Z,101552.96
2022-10-01T20:51:24.409Z,101557.96
2022-10-01T20:54:23.195Z,101555.09
2022-10-01T20:57:22.582Z,101554.53
2022-10-01T21:00:20.548Z,101559.93
2022-10-01T21:03:22.589Z,101563.88
2022-10-01T21:06:16.449Z,101561.42
2022-10-01T21:09:16.407Z,101555.73
2022-10-01T21:12:15.228Z,101553.45
2022-10-01T21:15:07.321Z,101557.86
2022-10-01T21:18:06.072Z,101557.82
2022-10-01T21:21:07.719Z,101557.90
2022-10-01T21:24:09.677Z,101559.69
2022-10-01T21:27:09.943Z,101560.20
2022-10-01T21:30:11.942Z,101561.02
2022-10-01T21:33:15.103Z,101561.16
2022-10-01T21:36:19.487Z,101567.35
2022-10-01T21:39:20.039Z,101570.16
2022-10-01T21:42:17.629Z,101568.91
2022-10-01T21:45:24.290Z,101575.66
2022-10-01T21:48:29.423Z,101580.14
2022-10-01T21:51:26.438Z,101583.75
2022-10-01T21:54:36.995Z,101584.66
2022-10-01T21:57:48.922Z,101584.95
2022-10-01T22:00:39.525Z,101584.55
2022-10-01T22:03:40.810Z,101588.29
2022-10-01T22:06:36.669Z,101592.00
2022-10-01T22:09:35.247Z,101599.31
2022-10-01T22:12:28.884Z,101605.33
2022-10-01T22:15:26.183Z,101606.88
2022-10-01T22:18:20.305Z,101607.26
2022-10-01T22:21:14.738Z,101608.77
2022-10-01T22:24:10.879Z,101610.29
2022-10-01T22:27:07.584Z,101609.45
2022-10-01T22:30:01.697Z,101607.42
2022-10-01T22:32:59.942Z,101611.23
2022-10-01T22:35:55.594Z,101611.31
2022-10-01T22:38:54.343Z,101614.95
2022-10-01T22:41:51.996Z,101614.20
2022-10-01T22:44:42.552Z,101611.59
2022-10-01T22:47:54.618Z,101617.41
2022-10-01T22:50:56.364Z,101615.00
2022-10-01T22:54:10.866Z,101614.76
2022-10-01T22:57:10.697Z,101612.80
2022-10-01T23:00:07.395Z,101611.64
2022-10-01T23:03:12.784Z,101625.23
2022-10-01T23:06:09.794Z,101622.52
2022-10-01T23:09:08.318Z,101625.30
2022-10-01T23:12:10.831Z,101629.68
2022-10-01T23:15:16.046Z,101630.48
2022-10-01T23:18:19.564Z,101631.55
2022-10-01T23:21:23.729Z,101635.70
2022-10-01T23:24:30.686Z,101632.14
2022-10-01T23:27:32.082Z,101633.92
2022-10-01T23:30:23.177Z,101630.49
2022-10-01T23:33:32.114Z,101635.27
2022-10-01T23:36:32.333Z,101636.55
2022-10-01T23:39:55.303Z,101634.61
2022-10-01T23:42:54.579Z,101633.36
2022-10-01T23:45:48.593Z,101631.96
2022-10-01T23:48:45.318Z,101633.79
2022-10-01T23:51:39.800Z,101639.91
2022-10-01T23:54:36.499Z,101639.79
2022-10-01T23:57:32.483Z,101638.58
